createdAt,value
2023-05-06T00:00:23.762Z,51.259560
2023-05-06T00:01:23.754Z,51.259472
2023-05-06T00:02:23.921Z,51.259495
2023-05-06T00:03:23.805Z,51.259506
2023-05-06T00:04:23.802Z,51.259514
2023-05-06T00:05:23.757Z,51.259525
2023-05-06T00:06:23.726Z,51.259514
2023-05-06T00:07:23.753Z,51.259495
2023-05-06T00:08:23.691Z,51.259495
2023-05-06T00:09:23.667Z,51.259514
2023-05-06T00:10:23.655Z,51.259533
2023-05-06T00:11:23.671Z,51.259590
2023-05-06T00:12:23.645Z,51.259544
2023-05-06T00:13:23.640Z,51.259533
2023-05-06T00:14:23.640Z,51.259499
2023-05-06T00:15:23.613Z,51.259541
2023-05-06T00:16:23.651Z,51.259571
2023-05-06T00:17:23.608Z,51.259556
2023-05-06T00:18:23.706Z,51.259579
2023-05-06T00:19:23.580Z,51.259541
2023-05-06T00:20:23.625Z,51.259548
2023-05-06T00:21:23.585Z,51.259567
2023-05-06T00:22:23.564Z,51.259552
2023-05-06T00:23:23.552Z,51.259579
2023-05-06T00:24:23.513Z,51.259586
2023-05-06T00:25:23.512Z,51.259594
2023-05-06T00:26:23.516Z,51.259560
2023-05-06T00:27:23.500Z,51.259518
2023-05-06T00:28:23.482Z,51.259548
2023-05-06T00:29:23.488Z,51.259560
2023-05-06T00:30:23.479Z,51.259552
2023-05-06T00:31:23.516Z,51.259529
2023-05-06T00:32:23.547Z,51.259472
2023-05-06T00:33:23.491Z,51.259583
2023-05-06T00:34:23.552Z,51.259621
2023-05-06T00:35:23.452Z,51.259598
2023-05-06T00:36:23.406Z,51.259525
2023-05-06T00:37:23.400Z,51.259464
2023-05-06T00:38:23.387Z,51.259525
2023-05-06T00:39:23.390Z,51.259586
2023-05-06T00:40:23.367Z,51.259541
2023-05-06T00:41:23.379Z,51.259548
2023-05-06T00:42:23.370Z,51.259583
2023-05-06T00:43:23.334Z,51.259537
2023-05-06T00:44:23.325Z,51.259521
2023-05-06T00:45:23.362Z,51.259571
2023-05-06T00:46:23.455Z,51.259628
2023-05-06T00:47:23.300Z,51.259571
2023-05-06T00:48:23.301Z,51.259628
2023-05-06T00:49:23.266Z,51.259579
2023-05-06T00:50:23.421Z,51.259605
2023-05-06T00:51:23.246Z,51.259579
2023-05-06T00:52:23.238Z,51.259544
2023-05-06T00:53:23.261Z,51.259575
2023-05-06T00:54:23.221Z,51.259651
2023-05-06T00:55:23.214Z,51.259644
2023-05-06T00:56:23.200Z,51.259617
2023-05-06T00:57:23.187Z,51.259651
2023-05-06T00:58:23.190Z,51.259636
2023-05-06T00:59:23.197Z,51.259590
2023-05-06T01:00:23.177Z,51.259636
2023-05-06T01:01:23.211Z,51.259624
2023-05-06T01:02:26.267Z,51.259544
2023-05-06T01:03:25.188Z,51.259609
2023-05-06T01:04:23.123Z,51.259647
2023-05-06T01:05:23.184Z,51.259602
2023-05-06T01:06:23.181Z,51.259640
2023-05-06T01:07:23.148Z,51.259640
2023-05-06T01:08:23.097Z,51.259605
2023-05-06T01:09:23.072Z,51.259605
2023-05-06T01:10:23.094Z,51.259613
2023-05-06T01:11:23.060Z,51.259571
2023-05-06T01:12:23.064Z,51.259644
2023-05-06T01:13:23.099Z,51.259644
2023-05-06T01:14:23.025Z,51.259560
2023-05-06T01:15:23.012Z,51.259613
2023-05-06T01:16:23.055Z,51.259602
2023-05-06T01:17:23.036Z,51.259624
2023-05-06T01:18:23.050Z,51.259552
2023-05-06T01:19:22.979Z,51.259521
2023-05-06T01:20:22.966Z,51.259731
2023-05-06T01:21:23.033Z,51.259567
2023-05-06T01:22:22.968Z,51.259563
2023-05-06T01:23:22.946Z,51.259556
2023-05-06T01:24:22.938Z,51.259495
2023-05-06T01:25:23.947Z,51.259480
2023-05-06T01:26:22.919Z,51.259502
2023-05-06T01:27:22.907Z,51.259472
2023-05-06T01:28:22.892Z,51.259552
2023-05-06T01:29:22.906Z,51.259583
2023-05-06T01:30:22.928Z,51.259575
2023-05-06T01:31:22.902Z,51.259621
2023-05-06T01:32:22.881Z,51.259483
2023-05-06T01:33:22.837Z,51.259480
2023-05-06T01:34:22.870Z,51.259380
2023-05-06T01:35:22.816Z,51.259411
2023-05-06T01:36:22.826Z,51.259373
2023-05-06T01:37:22.800Z,51.259457
2023-05-06T01:38:22.900Z,51.259632
2023-05-06T01:39:22.793Z,51.259590
2023-05-06T01:40:22.768Z,51.259624
2023-05-06T01:41:22.762Z,51.259586
2023-05-06T01:42:22.757Z,51.259605
2023-05-06T01:43:22.751Z,51.259563
2023-05-06T01:44:22.742Z,51.259506
2023-05-06T01:45:22.718Z,51.259487
2023-05-06T01:46:22.824Z,51.259605
2023-05-06T01:47:22.696Z,51.259621
2023-05-06T01:48:22.704Z,51.259556
2023-05-06T01:49:22.694Z,51.259556
2023-05-06T01:50:22.669Z,51.259521
2023-05-06T01:51:22.659Z,51.259544
2023-05-06T01:52:22.649Z,51.259552
2023-05-06T01:53:22.655Z,51.259548
2023-05-06T01:54:22.632Z,51.259552
2023-05-06T01:55:22.656Z,51.259560
2023-05-06T01:56:22.620Z,51.259480
2023-05-06T01:57:22.606Z,51.259529
2023-05-06T01:58:22.610Z,51.259537
2023-05-06T01:59:22.589Z,51.259552
2023-05-06T02:00:22.568Z,51.259560
2023-05-06T02:01:22.582Z,51.259544
2023-05-06T02:02:22.585Z,51.259514
2023-05-06T02:03:22.661Z,51.259499
2023-05-06T02:04:22.529Z,51.259506
2023-05-06T02:05:22.512Z,51.259544
2023-05-06T02:06:22.504Z,51.259617
2023-05-06T02:07:22.513Z,51.259579
2023-05-06T02:08:22.495Z,51.259529
2023-05-06T02:09:22.477Z,51.259449
2023-05-06T02:10:22.537Z,51.259441
2023-05-06T02:11:22.464Z,51.259537
2023-05-06T02:12:22.461Z,51.259480
2023-05-06T02:13:22.457Z,51.259571
2023-05-06T02:14:22.425Z,51.259514
2023-05-06T02:15:22.441Z,51.259460
2023-05-06T02:16:22.430Z,51.259529
2023-05-06T02:17:22.451Z,51.259499
2023-05-06T02:18:22.386Z,51.259533
2023-05-06T02:19:22.372Z,51.259506
2023-05-06T02:20:22.375Z,51.259457
2023-05-06T02:21:22.383Z,51.259445
2023-05-06T02:22:22.364Z,51.259483
2023-05-06T02:23:22.347Z,51.259487
2023-05-06T02:24:22.337Z,51.259529
2023-05-06T02:25:22.334Z,51.259548
2023-05-06T02:26:22.445Z,51.259544
2023-05-06T02:27:22.300Z,51.259541
2023-05-06T02:28:22.287Z,51.259590
2023-05-06T02:29:22.280Z,51.259594
2023-05-06T02:30:22.272Z,51.259663
2023-05-06T02:31:22.294Z,51.259621
2023-05-06T02:32:22.266Z,51.259571
2023-05-06T02:33:22.238Z,51.259495
2023-05-06T02:34:22.230Z,51.259506
2023-05-06T02:35:22.233Z,51.259438
2023-05-06T02:36:22.217Z,51.259476
2023-05-06T02:37:22.209Z,51.259514
2023-05-06T02:38:23.181Z,51.259556
2023-05-06T02:39:22.173Z,51.259567
2023-05-06T02:40:22.196Z,51.259537
2023-05-06T02:41:22.170Z,51.259537
2023-05-06T02:42:22.176Z,51.259541
2023-05-06T02:43:22.130Z,51.259514
2023-05-06T02:44:22.145Z,51.259434
2023-05-06T02:45:22.139Z,51.259525
2023-05-06T02:46:22.210Z,51.259476
2023-05-06T02:47:22.144Z,51.259457
2023-05-06T02:48:22.082Z,51.259506
2023-05-06T02:49:22.087Z,51.259499
2023-05-06T02:50:22.084Z,51.259521
2023-05-06T02:51:22.053Z,51.259514
2023-05-06T02:52:22.039Z,51.259529
2023-05-06T02:53:22.046Z,51.259575
2023-05-06T02:54:22.047Z,51.259533
2023-05-06T02:55:22.022Z,51.259674
2023-05-06T02:56:22.001Z,51.259609
2023-05-06T02:57:21.996Z,51.259621
2023-05-06T02:58:21.995Z,51.259693
2023-05-06T02:59:22.000Z,51.259617
2023-05-06T03:00:21.965Z,51.259678
2023-05-06T03:01:21.979Z,51.259598
2023-05-06T03:02:21.975Z,51.259636
2023-05-06T03:03:21.947Z,51.259602
2023-05-06T03:04:22.001Z,51.259621
2023-05-06T03:05:21.915Z,51.259586
2023-05-06T03:06:21.903Z,51.259552
2023-05-06T03:07:21.895Z,51.259495
2023-05-06T03:08:21.924Z,51.259506
2023-05-06T03:09:21.884Z,51.259468
2023-05-06T03:10:21.872Z,51.259449
2023-05-06T03:11:21.862Z,51.259460
2023-05-06T03:12:21.833Z,51.259537
2023-05-06T03:13:21.988Z,51.259487
2023-05-06T03:14:21.883Z,51.259457
2023-05-06T03:15:21.826Z,51.259415
2023-05-06T03:16:21.853Z,51.259491
2023-05-06T03:17:21.817Z,51.259460
2023-05-06T03:18:21.802Z,51.259506
2023-05-06T03:19:21.763Z,51.259571
2023-05-06T03:20:21.786Z,51.259472
2023-05-06T03:21:21.798Z,51.259438
2023-05-06T03:22:21.753Z,51.259491
2023-05-06T03:23:21.726Z,51.259499
2023-05-06T03:24:21.720Z,51.259502
2023-05-06T03:25:21.708Z,51.259525
2023-05-06T03:26:21.698Z,51.259495
2023-05-06T03:27:21.736Z,51.259514
2023-05-06T03:28:21.684Z,51.259533
2023-05-06T03:29:21.668Z,51.259487
2023-05-06T03:30:21.775Z,51.259483
2023-05-06T03:31:21.694Z,51.259499
2023-05-06T03:32:21.650Z,51.259373
2023-05-06T03:33:21.636Z,51.259422
2023-05-06T03:34:21.623Z,51.259541
2023-05-06T03:35:21.639Z,51.259502
2023-05-06T03:36:21.613Z,51.259525
2023-05-06T03:37:21.585Z,51.259502
2023-05-06T03:38:22.581Z,51.259518
2023-05-06T03:39:21.572Z,51.259502
2023-05-06T03:40:21.567Z,51.259567
2023-05-06T03:41:21.567Z,51.259537
2023-05-06T03:42:21.556Z,51.259487
2023-05-06T03:43:21.550Z,51.259373
2023-05-06T03:44:21.514Z,51.259495
2023-05-06T03:45:21.512Z,51.259613
2023-05-06T03:46:21.625Z,51.259602
2023-05-06T03:47:21.522Z,51.259514
2023-05-06T03:48:21.503Z,51.259464
2023-05-06T03:49:21.468Z,51.259548
2023-05-06T03:50:21.465Z,51.259556
2023-05-06T03:51:21.449Z,51.259563
2023-05-06T03:52:21.429Z,51.259460
2023-05-06T03:53:21.427Z,51.259453
2023-05-06T03:54:21.417Z,51.259502
2023-05-06T03:55:21.426Z,51.259457
2023-05-06T03:56:21.402Z,51.259384
2023-05-06T03:57:21.396Z,51.259418
2023-05-06T03:58:21.386Z,51.259457
2023-05-06T03:59:21.394Z,51.259502
2023-05-06T04:00:21.382Z,51.259510
2023-05-06T04:01:21.348Z,51.259510
2023-05-06T04:02:21.499Z,51.259514
2023-05-06T04:03:21.366Z,51.259567
2023-05-06T04:04:21.343Z,51.259579
2023-05-06T04:05:21.301Z,51.259518
2023-05-06T04:06:21.311Z,51.259453
2023-05-06T04:07:21.281Z,51.259548
2023-05-06T04:08:21.316Z,51.259537
2023-05-06T04:09:21.294Z,51.259548
2023-05-06T04:10:21.263Z,51.259594
2023-05-06T04:11:21.248Z,51.259651
2023-05-06T04:12:21.235Z,51.259579
2023-05-06T04:13:21.296Z,51.259499
2023-05-06T04:14:21.221Z,51.259411
2023-05-06T04:15:21.202Z,51.259506
2023-05-06T04:16:21.244Z,51.259468
2023-05-06T04:17:21.188Z,51.259418
2023-05-06T04:18:21.333Z,51.259502
2023-05-06T04:19:21.160Z,51.259422
2023-05-06T04:20:53.090Z,51.259502
2023-05-06T04:21:21.139Z,51.259529
2023-05-06T04:22:21.149Z,51.259495
2023-05-06T04:23:21.140Z,51.259491
2023-05-06T04:24:21.119Z,51.259525
2023-05-06T04:25:21.132Z,51.259518
2023-05-06T04:26:21.095Z,51.259487
2023-05-06T04:27:21.130Z,51.259499
2023-05-06T04:28:21.092Z,51.259449
2023-05-06T04:29:21.062Z,51.259464
2023-05-06T04:30:21.070Z,51.259468
2023-05-06T04:31:21.156Z,51.259506
2023-05-06T04:32:21.090Z,51.259499
2023-05-06T04:33:21.032Z,51.259491
2023-05-06T04:34:21.090Z,51.259434
2023-05-06T04:35:21.027Z,51.259418
2023-05-06T04:36:21.090Z,51.259480
2023-05-06T04:37:20.999Z,51.259426
2023-05-06T04:38:20.978Z,51.259457
2023-05-06T04:39:21.017Z,51.259491
2023-05-06T04:40:20.956Z,51.259529
2023-05-06T04:41:20.965Z,51.259583
2023-05-06T04:42:20.936Z,51.259548
2023-05-06T04:43:20.923Z,51.259541
2023-05-06T04:44:20.938Z,51.259506
2023-05-06T04:45:20.929Z,51.259499
2023-05-06T04:46:21.004Z,51.259544
2023-05-06T04:47:20.903Z,51.259567
2023-05-06T04:48:20.889Z,51.259529
2023-05-06T04:49:20.911Z,51.259563
2023-05-06T04:50:20.957Z,51.259563
2023-05-06T04:51:20.872Z,51.259544
2023-05-06T04:52:20.833Z,51.259510
2023-05-06T04:53:20.882Z,51.259510
2023-05-06T04:54:20.858Z,51.259529
2023-05-06T04:55:20.837Z,51.259510
2023-05-06T04:56:20.805Z,51.259464
2023-05-06T04:57:20.808Z,51.259525
2023-05-06T04:58:20.787Z,51.259560
2023-05-06T04:59:20.801Z,51.259525
2023-05-06T05:00:20.753Z,51.259571
2023-05-06T05:01:20.787Z,51.259563
2023-05-06T05:02:20.813Z,51.259548
2023-05-06T05:03:20.855Z,51.259525
2023-05-06T05:04:20.744Z,51.259556
2023-05-06T05:05:20.720Z,51.259544
2023-05-06T05:06:20.756Z,51.259521
2023-05-06T05:07:20.686Z,51.259529
2023-05-06T05:08:20.713Z,51.259537
2023-05-06T05:09:20.692Z,51.259560
2023-05-06T05:10:20.659Z,51.259544
2023-05-06T05:11:20.657Z,51.259556
2023-05-06T05:12:20.636Z,51.259541
2023-05-06T05:13:20.765Z,51.259552
2023-05-06T05:14:20.651Z,51.259533
2023-05-06T05:15:20.610Z,51.259521
2023-05-06T05:16:20.598Z,51.259548
2023-05-06T05:17:20.590Z,51.259548
2023-05-06T05:18:20.584Z,51.259586
2023-05-06T05:19:20.594Z,51.259567
2023-05-06T05:20:20.558Z,51.259525
2023-05-06T05:21:20.551Z,51.259457
2023-05-06T05:22:20.600Z,51.259476
2023-05-06T05:23:20.577Z,51.259464
2023-05-06T05:24:20.512Z,51.259487
2023-05-06T05:25:20.504Z,51.259392
2023-05-06T05:26:20.492Z,51.259521
2023-05-06T05:27:20.490Z,51.259480
2023-05-06T05:28:20.491Z,51.259548
2023-05-06T05:29:20.468Z,51.259571
2023-05-06T05:30:20.456Z,51.259571
2023-05-06T05:31:20.471Z,51.259602
2023-05-06T05:32:20.512Z,51.259602
2023-05-06T05:33:20.543Z,51.259583
2023-05-06T05:34:20.409Z,51.259594
2023-05-06T05:35:20.407Z,51.259518
2023-05-06T05:36:20.397Z,51.259590
2023-05-06T05:37:20.402Z,51.259609
2023-05-06T05:38:20.430Z,51.259590
2023-05-06T05:39:20.382Z,51.259541
2023-05-06T05:40:20.365Z,51.259583
2023-05-06T05:41:20.349Z,51.259544
2023-05-06T05:42:20.351Z,51.259602
2023-05-06T05:43:20.323Z,51.259560
2023-05-06T05:44:20.323Z,51.259567
2023-05-06T05:45:20.312Z,51.259598
2023-05-06T05:46:20.338Z,51.259567
2023-05-06T05:47:20.300Z,51.259575
2023-05-06T05:48:20.277Z,51.259552
2023-05-06T05:49:20.265Z,51.259579
2023-05-06T05:50:20.273Z,51.259556
2023-05-06T05:51:20.250Z,51.259548
2023-05-06T05:52:20.241Z,51.259563
2023-05-06T05:53:20.221Z,51.259537
2023-05-06T05:54:20.353Z,51.259541
2023-05-06T05:55:20.206Z,51.259510
2023-05-06T05:56:20.208Z,51.259609
2023-05-06T05:57:20.184Z,51.259743
2023-05-06T05:58:20.240Z,51.259682
2023-05-06T05:59:20.169Z,51.259647
2023-05-06T06:00:20.183Z,51.259701
2023-05-06T06:01:20.154Z,51.259602
2023-05-06T06:02:20.264Z,51.259594
2023-05-06T06:03:20.161Z,51.259575
2023-05-06T06:04:20.131Z,51.259655
2023-05-06T06:05:20.125Z,51.259621
2023-05-06T06:06:20.089Z,51.259560
2023-05-06T06:07:21.086Z,51.259598
2023-05-06T06:08:20.074Z,51.259655
2023-05-06T06:09:20.069Z,51.259624
2023-05-06T06:10:20.193Z,51.259605
2023-05-06T06:11:20.040Z,51.259567
2023-05-06T06:12:20.030Z,51.259514
2023-05-06T06:13:20.119Z,51.259525
2023-05-06T06:14:20.043Z,51.259575
2023-05-06T06:15:20.027Z,51.259613
2023-05-06T06:16:20.039Z,51.259575
2023-05-06T06:17:19.978Z,51.259548
2023-05-06T06:18:19.970Z,51.259544
2023-05-06T06:19:19.963Z,51.259552
2023-05-06T06:20:20.951Z,51.259506
2023-05-06T06:21:19.947Z,51.259533
2023-05-06T06:22:19.933Z,51.259556
2023-05-06T06:23:19.938Z,51.259575
2023-05-06T06:24:19.933Z,51.259575
2023-05-06T06:25:19.918Z,51.259583
2023-05-06T06:26:19.961Z,51.259594
2023-05-06T06:27:19.880Z,51.259579
2023-05-06T06:28:19.891Z,51.259544
2023-05-06T06:29:19.878Z,51.259590
2023-05-06T06:30:19.854Z,51.259548
2023-05-06T06:31:19.860Z,51.259529
2023-05-06T06:32:19.950Z,51.259529
2023-05-06T06:33:19.842Z,51.259541
2023-05-06T06:34:19.808Z,51.259590
2023-05-06T06:35:19.813Z,51.259563
2023-05-06T06:36:19.794Z,51.259495
2023-05-06T06:37:19.791Z,51.259495
2023-05-06T06:38:19.788Z,51.259525
2023-05-06T06:39:19.785Z,51.259563
2023-05-06T06:40:19.756Z,51.259583
2023-05-06T06:41:19.750Z,51.259602
2023-05-06T06:42:19.878Z,51.259510
2023-05-06T06:43:19.733Z,51.259560
2023-05-06T06:44:19.717Z,51.259590
2023-05-06T06:45:19.712Z,51.259628
2023-05-06T06:46:19.707Z,51.259583
2023-05-06T06:47:19.691Z,51.259552
2023-05-06T06:48:19.679Z,51.259624
2023-05-06T06:49:19.660Z,51.259571
2023-05-06T06:50:19.681Z,51.259541
2023-05-06T06:51:19.644Z,51.259609
2023-05-06T06:52:19.652Z,51.259689
2023-05-06T06:53:19.616Z,51.259655
2023-05-06T06:54:19.605Z,51.259636
2023-05-06T06:55:19.611Z,51.259624
2023-05-06T06:56:19.607Z,51.259605
2023-05-06T06:57:19.603Z,51.259609
2023-05-06T06:58:19.632Z,51.259590
2023-05-06T06:59:19.561Z,51.259571
2023-05-06T07:00:19.567Z,51.259537
2023-05-06T07:01:19.590Z,51.259502
2023-05-06T07:02:19.539Z,51.259544
2023-05-06T07:03:19.719Z,51.259613
2023-05-06T07:04:19.573Z,51.259617
2023-05-06T07:05:20.415Z,51.259598
2023-05-06T07:06:19.519Z,51.259655
2023-05-06T07:07:19.516Z,51.259659
2023-05-06T07:08:19.485Z,51.259590
2023-05-06T07:09:19.479Z,51.259560
2023-05-06T07:10:19.458Z,51.259583
2023-05-06T07:11:19.502Z,51.259602
2023-05-06T07:12:19.464Z,51.259609
2023-05-06T07:13:19.467Z,51.259609
2023-05-06T07:14:19.480Z,51.259560
2023-05-06T07:15:19.416Z,51.259541
2023-05-06T07:16:19.459Z,51.259411
2023-05-06T07:17:19.583Z,51.259445
2023-05-06T07:18:19.413Z,51.259476
2023-05-06T07:19:19.374Z,51.259483
2023-05-06T07:20:19.364Z,51.259502
2023-05-06T07:21:19.382Z,51.259521
2023-05-06T07:22:19.359Z,51.259537
2023-05-06T07:23:19.344Z,51.259502
2023-05-06T07:24:19.344Z,51.259552
2023-05-06T07:25:19.324Z,51.259571
2023-05-06T07:26:19.311Z,51.259548
2023-05-06T07:27:19.290Z,51.259541
2023-05-06T07:28:19.291Z,51.259548
2023-05-06T07:29:19.291Z,51.259529
2023-05-06T07:30:21.054Z,51.259594
2023-05-06T07:31:19.311Z,51.259544
2023-05-06T07:32:19.299Z,51.259563
2023-05-06T07:33:20.233Z,51.259506
2023-05-06T07:34:19.239Z,51.259544
2023-05-06T07:35:19.278Z,51.259541
2023-05-06T07:36:19.220Z,51.259525
2023-05-06T07:37:19.207Z,51.259518
2023-05-06T07:38:19.210Z,51.259552
2023-05-06T07:39:19.205Z,51.259537
2023-05-06T07:40:19.180Z,51.259659
2023-05-06T07:41:19.159Z,51.259556
2023-05-06T07:42:19.161Z,51.259659
2023-05-06T07:43:19.178Z,51.259621
2023-05-06T07:44:19.178Z,51.259583
2023-05-06T07:45:19.129Z,51.259617
2023-05-06T07:46:19.300Z,51.259552
2023-05-06T07:47:19.154Z,51.259495
2023-05-06T07:48:19.952Z,51.259590
2023-05-06T07:49:19.128Z,51.259544
2023-05-06T07:50:19.068Z,51.259598
2023-05-06T07:51:19.044Z,51.259533
2023-05-06T07:52:20.056Z,51.259541
2023-05-06T07:53:19.053Z,51.259560
2023-05-06T07:54:19.044Z,51.259556
2023-05-06T07:55:19.006Z,51.259575
2023-05-06T07:56:19.030Z,51.259544
2023-05-06T07:57:19.032Z,51.259575
2023-05-06T07:58:19.003Z,51.259613
2023-05-06T07:59:18.990Z,51.259544
2023-05-06T08:00:18.971Z,51.259556
2023-05-06T08:01:18.961Z,51.259609
2023-05-06T08:02:19.019Z,51.259613
2023-05-06T08:03:19.023Z,51.259628
2023-05-06T08:04:18.979Z,51.259659
2023-05-06T08:05:18.923Z,51.259628
2023-05-06T08:06:18.945Z,51.259647
2023-05-06T08:07:18.890Z,51.259571
2023-05-06T08:08:18.909Z,51.259567
2023-05-06T08:09:23.025Z,51.259575
2023-05-06T08:10:19.867Z,51.259598
2023-05-06T08:11:19.465Z,51.259583
2023-05-06T08:12:19.849Z,51.259609
2023-05-06T08:13:18.918Z,51.259548
2023-05-06T08:14:18.844Z,51.259590
2023-05-06T08:15:18.810Z,51.259533
2023-05-06T08:16:18.880Z,51.259544
2023-05-06T08:17:18.812Z,51.259548
2023-05-06T08:18:22.908Z,51.259552
2023-05-06T08:19:19.781Z,51.259563
2023-05-06T08:20:18.803Z,51.259598
2023-05-06T08:21:18.771Z,51.259548
2023-05-06T08:22:18.762Z,51.259632
2023-05-06T08:23:18.740Z,51.259567
2023-05-06T08:24:18.737Z,51.259609
2023-05-06T08:25:18.746Z,51.259544
2023-05-06T08:26:18.717Z,51.259579
2023-05-06T08:27:18.706Z,51.259560
2023-05-06T08:28:18.706Z,51.259567
2023-05-06T08:29:18.690Z,51.259598
2023-05-06T08:30:18.727Z,51.259560
2023-05-06T08:31:18.684Z,51.259571
2023-05-06T08:32:18.665Z,51.259552
2023-05-06T08:33:18.651Z,51.259541
2023-05-06T08:34:18.683Z,51.259525
2023-05-06T08:35:18.675Z,51.259594
2023-05-06T08:36:18.624Z,51.259609
2023-05-06T08:37:18.601Z,51.259609
2023-05-06T08:38:18.597Z,51.259617
2023-05-06T08:39:18.620Z,51.259525
2023-05-06T08:40:18.600Z,51.259525
2023-05-06T08:41:18.576Z,51.259529
2023-05-06T08:42:18.607Z,51.259537
2023-05-06T08:43:18.574Z,51.259499
2023-05-06T08:44:18.548Z,51.259579
2023-05-06T08:45:18.538Z,51.259533
2023-05-06T08:46:18.720Z,51.259518
2023-05-06T08:47:18.516Z,51.259502
2023-05-06T08:48:19.496Z,51.259525
2023-05-06T08:49:18.501Z,51.259544
2023-05-06T08:50:18.502Z,51.259518
2023-05-06T08:51:18.501Z,51.259533
2023-05-06T08:52:18.486Z,51.259525
2023-05-06T08:53:18.484Z,51.259499
2023-05-06T08:54:18.448Z,51.259510
2023-05-06T08:55:18.457Z,51.259575
2023-05-06T08:56:18.430Z,51.259491
2023-05-06T08:57:18.461Z,51.259563
2023-05-06T08:58:18.439Z,51.259491
2023-05-06T08:59:18.407Z,51.259510
2023-05-06T09:00:18.398Z,51.259499
2023-05-06T09:01:18.385Z,51.259506
2023-05-06T09:02:18.415Z,51.259525
2023-05-06T09:03:18.522Z,51.259491
2023-05-06T09:04:18.356Z,51.259476
2023-05-06T09:05:18.429Z,51.259453
2023-05-06T09:06:18.329Z,51.259544
2023-05-06T09:07:18.360Z,51.259510
2023-05-06T09:08:18.310Z,51.259506
2023-05-06T09:09:18.305Z,51.259510
2023-05-06T09:10:18.302Z,51.259514
2023-05-06T09:11:18.278Z,51.259583
2023-05-06T09:12:19.304Z,51.259533
2023-05-06T09:13:18.311Z,51.259560
2023-05-06T09:14:18.268Z,51.259563
2023-05-06T09:15:18.247Z,51.259560
2023-05-06T09:16:18.250Z,51.259533
2023-05-06T09:17:18.242Z,51.259533
2023-05-06T09:18:18.213Z,51.259590
2023-05-06T09:19:18.206Z,51.259468
2023-05-06T09:20:18.238Z,51.259495
2023-05-06T09:21:18.224Z,51.259529
2023-05-06T09:22:18.303Z,51.259506
2023-05-06T09:23:18.169Z,51.259560
2023-05-06T09:24:18.160Z,51.259548
2023-05-06T09:25:18.150Z,51.259590
2023-05-06T09:26:18.158Z,51.259590
2023-05-06T09:27:18.132Z,51.259510
2023-05-06T09:28:18.118Z,51.259438
2023-05-06T09:29:18.169Z,51.259434
2023-05-06T09:30:18.105Z,51.259415
2023-05-06T09:31:18.136Z,51.259411
2023-05-06T09:32:18.137Z,51.259499
2023-05-06T09:33:18.067Z,51.259525
2023-05-06T09:34:18.128Z,51.259499
2023-05-06T09:35:18.078Z,51.259480
2023-05-06T09:36:18.047Z,51.259468
2023-05-06T09:37:18.023Z,51.259529
2023-05-06T09:38:18.026Z,51.259586
2023-05-06T09:39:18.007Z,51.259499
2023-05-06T09:40:18.132Z,51.259460
2023-05-06T09:41:18.041Z,51.259537
2023-05-06T09:42:17.973Z,51.259457
2023-05-06T09:43:17.989Z,51.259487
2023-05-06T09:44:17.977Z,51.259499
2023-05-06T09:45:17.971Z,51.259502
2023-05-06T09:46:17.993Z,51.259396
2023-05-06T09:47:17.934Z,51.259445
2023-05-06T09:48:17.924Z,51.259529
2023-05-06T09:49:17.944Z,51.259533
2023-05-06T09:50:17.958Z,51.259518
2023-05-06T09:51:17.902Z,51.259457
2023-05-06T09:52:17.882Z,51.259453
2023-05-06T09:53:17.885Z,51.259472
2023-05-06T09:54:18.018Z,51.259476
2023-05-06T09:55:17.849Z,51.259544
2023-05-06T09:56:17.842Z,51.259552
2023-05-06T09:57:17.848Z,51.259506
2023-05-06T09:58:17.848Z,51.259476
2023-05-06T09:59:17.852Z,51.259556
2023-05-06T10:00:17.918Z,51.259441
2023-05-06T10:01:28.776Z,51.259399
2023-05-06T10:02:19.994Z,51.259514
2023-05-06T10:03:17.922Z,51.259483
2023-05-06T10:04:17.864Z,51.259560
2023-05-06T10:05:18.125Z,51.259495
2023-05-06T10:06:17.764Z,51.259495
2023-05-06T10:07:17.769Z,51.259598
2023-05-06T10:08:17.733Z,51.259357
2023-05-06T10:09:17.731Z,51.259487
2023-05-06T10:10:18.332Z,51.259499
2023-05-06T10:11:18.199Z,51.259434
2023-05-06T10:12:18.020Z,51.259514
2023-05-06T10:13:18.689Z,51.259541
2023-05-06T10:14:18.808Z,51.259624
2023-05-06T10:15:17.828Z,51.259548
2023-05-06T10:16:17.983Z,51.259537
2023-05-06T10:17:17.700Z,51.259487
2023-05-06T10:18:17.737Z,51.259430
2023-05-06T10:19:17.904Z,51.259289
2023-05-06T10:20:17.868Z,51.259373
2023-05-06T10:21:17.693Z,51.259533
2023-05-06T10:22:51.448Z,51.259567
2023-05-06T10:23:17.583Z,51.259537
2023-05-06T10:24:17.566Z,51.259563
2023-05-06T10:25:17.577Z,51.259529
2023-05-06T10:26:17.640Z,51.259487
2023-05-06T10:27:17.581Z,51.259407
2023-05-06T10:28:20.918Z,51.259388
2023-05-06T10:29:18.510Z,51.259377
2023-05-06T10:30:17.658Z,51.259460
2023-05-06T10:31:17.628Z,51.259472
2023-05-06T10:32:17.487Z,51.259476
2023-05-06T10:33:17.490Z,51.259476
2023-05-06T10:34:17.464Z,51.259476
2023-05-06T10:35:17.462Z,51.259369
2023-05-06T10:36:17.616Z,51.259464
2023-05-06T10:37:17.434Z,51.259422
2023-05-06T10:38:17.420Z,51.259472
2023-05-06T10:39:17.414Z,51.259476
2023-05-06T10:40:17.479Z,51.259441
2023-05-06T10:41:17.450Z,51.259464
2023-05-06T10:42:17.451Z,51.259537
2023-05-06T10:43:17.375Z,51.259567
2023-05-06T10:44:17.377Z,51.259552
2023-05-06T10:45:17.374Z,51.259518
2023-05-06T10:46:17.404Z,51.259491
2023-05-06T10:47:17.336Z,51.259468
2023-05-06T10:48:17.328Z,51.259464
2023-05-06T10:49:17.309Z,51.259460
2023-05-06T10:50:17.351Z,51.259495
2023-05-06T10:51:17.305Z,51.259556
2023-05-06T10:52:17.287Z,51.259598
2023-05-06T10:53:17.280Z,51.259521
2023-05-06T10:54:17.343Z,51.259533
2023-05-06T10:55:17.278Z,51.259499
2023-05-06T10:56:17.244Z,51.259560
2023-05-06T10:57:17.236Z,51.259533
2023-05-06T10:58:17.357Z,51.259590
2023-05-06T10:59:17.257Z,51.259502
2023-05-06T11:00:18.200Z,51.259567
2023-05-06T11:01:17.247Z,51.259617
2023-05-06T11:02:17.233Z,51.259548
2023-05-06T11:03:17.239Z,51.259457
2023-05-06T11:04:17.192Z,51.259415
2023-05-06T11:05:17.152Z,51.259460
2023-05-06T11:06:17.157Z,51.259541
2023-05-06T11:07:17.140Z,51.259575
2023-05-06T11:08:17.148Z,51.259464
2023-05-06T11:09:17.136Z,51.259438
2023-05-06T11:10:17.108Z,51.259418
2023-05-06T11:11:17.102Z,51.259464
2023-05-06T11:12:17.104Z,51.259449
2023-05-06T11:13:17.136Z,51.259495
2023-05-06T11:14:17.115Z,51.259468
2023-05-06T11:15:17.090Z,51.259384
2023-05-06T11:16:17.065Z,51.259399
2023-05-06T11:17:17.038Z,51.259407
2023-05-06T11:18:17.023Z,51.259483
2023-05-06T11:19:17.045Z,51.259457
2023-05-06T11:20:17.021Z,51.259529
2023-05-06T11:21:17.000Z,51.259460
2023-05-06T11:22:17.005Z,51.259529
2023-05-06T11:23:16.978Z,51.259567
2023-05-06T11:24:16.986Z,51.259548